Historique des mesures à Cassis (13260), France
Quotidien Résumé Aout 3, 2017 Unités:  Métrique    US   Métrique/US
« Précédent (Jour)
Suivant (Jour) »
Quotidien Hebdomadaire Mensuel Annuel Période au choix
  Maximum: Minimum: Moyenne:
Température: TemperatureC °C 25.8 °C 28.3 °C
Point de rosée: DewpointC °C 15.8 °C 18.4 °C
Humidité: Humidity % 43 % 52 %
Vitesse du vent: 0 km/h 0 km/h 3.2 km/h
Rafales: 0 km/h - -
Vent:- - SSE
Pression: PressurehPa hPa 1010.4 hPa -
Précipitations: 0.0 mm    
Historical Graphs
 
 
Mesures pour : Aout 3, 2017
Heure Temperature Point de rosée Pression Vent Vitesse du vent Rafales Humidité Pluie (par heure) Conditions
TemperatureC °C DewpointC °C PressurehPa hPa Calm     Humidity % HourlyPrecipMM mm SoftwareType W/m2
00:11 26.9 °C 21.7 °C 1014.1 hPa ENE 5.1 km/h 5.1 km/h 73 % 0.0 mm open2300-1.11 W/m2
01:11 25.8 °C 20.6 °C 1013.8 hPa Calm   4.7 km/h 73 % 0.0 mm open2300-1.11 W/m2
02:11 26.4 °C 19.3 °C 1012.4 hPa NNW 2.3 km/h 2.3 km/h 65 % 0.0 mm open2300-1.11 W/m2
03:11 26.3 °C 18.2 °C 1012.8 hPa North 1.8 km/h 8 km/h 61 % 0.0 mm open2300-1.11 W/m2
04:11 26.1 °C 16.9 °C 1012.4 hPa Calm     57 % 0.0 mm open2300-1.11 W/m2
06:11 25.8 °C 15.8 °C 1013.1 hPa NE 1.8 km/h 1.8 km/h 54 % 0.0 mm open2300-1.11 W/m2
07:11 25.8 °C 16.6 °C 1013.4 hPa Calm   2.3 km/h 57 % 0.0 mm open2300-1.11 W/m2
08:11 27.6 °C 19.4 °C 1013.1 hPa Calm     61 % 0.0 mm open2300-1.11 W/m2
09:11 28.4 °C 18.4 °C 1012.4 hPa Calm     55 % 0.0 mm open2300-1.11 W/m2
10:11 29.4 °C 19.1 °C 1012.8 hPa WSW 5.1 km/h 5.6 km/h 54 % 0.0 mm open2300-1.11 W/m2
11:11 32.4 °C 20.7 °C 1012.4 hPa ESE 3.4 km/h 8 km/h 50 % 0.0 mm open2300-1.11 W/m2
12:11 33.5 °C 20.6 °C 1011.7 hPa SE 6.4 km/h 8.9 km/h 47 % 0.0 mm open2300-1.11 W/m2
13:11 33.5 °C 19.8 °C 1011.7 hPa SSE 3.4 km/h 8 km/h 45 % 0.0 mm open2300-1.11 W/m2
14:11 33.4 °C 22.2 °C 1012.1 hPa SSE 4.7 km/h 14 km/h 52 % 0.0 mm open2300-1.11 W/m2
15:11 32.9 °C 22.9 °C 1012.1 hPa SW 8.9 km/h 9.8 km/h 56 % 0.0 mm open2300-1.11 W/m2
16:11 33.1 °C 18.8 °C 1011.4 hPa ESE 6.4 km/h 6.4 km/h 43 % 0.0 mm open2300-1.11 W/m2
17:11 32.6 °C 18.7 °C 1011.4 hPa SW 6.4 km/h 8 km/h 44 % 0.0 mm open2300-1.11 W/m2
18:11 32.3 °C 19.5 °C 1011.1 hPa Calm   9.3 km/h 47 % 0.0 mm open2300-1.11 W/m2
19:11 30.9 °C 20.2 °C 1010.7 hPa SW 9.3 km/h 9.3 km/h 53 % 0.0 mm open2300-1.11 W/m2
20:11 29.5 °C 20.1 °C 1010.7 hPa Calm     57 % 0.0 mm open2300-1.11 W/m2
21:11 29.0 °C 18.4 °C 1010.4 hPa Calm     53 % 0.0 mm open2300-1.11 W/m2
22:11 28.7 °C 16.9 °C 1010.7 hPa NNE 11.6 km/h 11.6 km/h 49 % 0.0 mm open2300-1.11 W/m2
23:11 28.5 °C 16.8 °C 1010.4 hPa Calm   5.6 km/h 49 % 0.0 mm open2300-1.11 W/m2
Observations météo à CASSIS
WU-History script by Weather Underground - 1 mb